Time;durP1;ratioP1;P1;durP2;ratioP2;P2;SDS_P1;SDS_P2;PMS_P1;PMS_P2;Temp;Humidity;BMP_temperature;BMP_pressure;BME280_temperature;BME280_humidity;BME280_pressure;Samples;Min_cycle;Max_cycle;Signal;HPM_P1;HPM_P2
2021/06/10 00:00:12;;;;;;;6.55;5.05;;;;;;;17.18;70.72;98874.59;1782526;80;21590;-42
2021/06/10 00:02:40;;;;;;;6.35;4.65;;;;;;;17.19;70.76;98880.22;1782344;80;20945;-42
2021/06/10 00:05:09;;;;;;;6.45;5.05;;;;;;;17.16;70.67;98871.48;1782369;80;21036;-42
2021/06/10 00:07:36;;;;;;;7.90;4.90;;;;;;;17.15;70.75;98875.40;1782540;80;21075;-42
2021/06/10 00:10:14;;;;;;;6.75;5.10;;;;;;;17.15;70.86;98874.03;1782149;80;21478;-42
2021/06/10 00:12:42;;;;;;;7.87;4.95;;;;;;;17.18;70.78;98871.84;1782234;80;21003;-42
2021/06/10 00:15:14;;;;;;;7.35;5.45;;;;;;;17.17;70.77;98870.30;1782262;80;21617;-43
2021/06/10 00:17:41;;;;;;;10.78;5.60;;;;;;;17.19;70.61;98865.16;1782236;80;21013;-42
2021/06/10 03:39:13;;;;;;;8.50;7.33;;;;;;;17.47;72.10;98858.46;1763840;80;20997;-42
2021/06/10 03:41:40;;;;;;;11.35;7.53;;;;;;;17.51;72.16;98853.09;1734308;82;20937;-42
2021/06/10 03:44:08;;;;;;;11.65;7.40;;;;;;;17.57;72.17;98847.30;1741562;82;21566;-43
2021/06/10 03:46:35;;;;;;;7.78;6.85;;;;;;;17.62;71.97;98845.47;1742847;82;20978;-42
2021/06/10 03:49:03;;;;;;;7.72;6.97;;;;;;;17.66;71.97;98845.43;1742823;82;21092;-42
2021/06/10 03:51:30;;;;;;;9.35;7.15;;;;;;;17.67;72.07;98840.88;1743349;82;21129;-42
2021/06/10 03:53:56;;;;;;;10.08;7.30;;;;;;;17.74;72.01;98851.73;1743072;82;21585;-43
2021/06/10 03:56:23;;;;;;;10.25;6.78;;;;;;;17.84;71.81;98846.47;1742741;82;21012;-43
2021/06/10 03:58:50;;;;;;;9.45;6.70;;;;;;;17.92;71.81;98853.36;1742889;82;21530;-42
2021/06/10 04:01:17;;;;;;;7.65;6.95;;;;;;;17.98;71.55;98851.68;1742790;82;21045;-42
2021/06/10 04:03:45;;;;;;;7.90;7.10;;;;;;;18.02;71.29;98857.87;1742738;82;23155;-43
2021/06/10 04:06:15;;;;;;;8.98;7.97;;;;;;;18.06;71.19;98854.45;1742627;82;20901;-42
2021/06/10 04:08:41;;;;;;;10.65;7.58;;;;;;;18.13;71.28;98855.70;1742890;82;20998;-43
2021/06/10 04:11:08;;;;;;;7.70;6.90;;;;;;;18.21;71.19;98850.23;1742843;82;21068;-42
2021/06/10 04:13:37;;;;;;;9.13;7.53;;;;;;;18.30;70.69;98850.44;1743271;82;21005;-42
2021/06/10 04:16:05;;;;;;;7.80;7.10;;;;;;;18.34;70.38;98856.66;1749359;80;21890;-43
2021/06/10 04:18:32;;;;;;;7.78;7.00;;;;;;;18.38;70.29;98854.61;1773457;80;21080;-42
2021/06/10 04:20:59;;;;;;;12.05;7.70;;;;;;;18.45;70.35;98861.90;1773485;80;20994;-43
2021/06/10 04:23:25;;;;;;;8.35;7.15;;;;;;;18.50;70.05;98867.67;1773519;80;21029;-42
2021/06/10 04:25:52;;;;;;;7.97;7.25;;;;;;;18.52;69.78;98863.91;1773578;80;21480;-42
2021/06/10 04:28:19;;;;;;;9.60;7.50;;;;;;;18.52;69.63;98857.05;1773494;80;21141;-43
2021/06/10 04:30:45;;;;;;;11.18;7.70;;;;;;;18.51;69.91;98861.59;1773376;80;21084;-43
2021/06/10 04:33:12;;;;;;;8.35;7.40;;;;;;;18.52;70.23;98856.27;1773662;80;21514;-42
2021/06/10 04:35:39;;;;;;;7.92;7.12;;;;;;;18.55;69.94;98865.05;1773526;80;20980;-42
2021/06/10 04:38:06;;;;;;;10.50;7.50;;;;;;;18.59;69.81;98863.78;1773598;80;21546;-42
2021/06/10 04:40:33;;;;;;;8.58;7.67;;;;;;;18.64;69.86;98858.38;1773504;80;21251;-43
2021/06/10 04:43:00;;;;;;;7.72;6.92;;;;;;;18.74;69.92;98856.00;1770739;80;21539;-43
2021/06/10 04:45:27;;;;;;;11.05;6.85;;;;;;;18.85;69.63;98859.89;1768653;81;21039;-43
2021/06/10 04:47:54;;;;;;;8.10;6.97;;;;;;;18.95;68.75;98864.38;1762398;81;21504;-43
2021/06/10 04:50:21;;;;;;;11.80;7.33;;;;;;;18.99;68.84;98859.56;1758053;81;21046;-43
2021/06/10 04:52:48;;;;;;;8.18;7.35;;;;;;;19.03;68.93;98863.00;1758567;81;21845;-42
2021/06/10 04:55:15;;;;;;;9.15;7.50;;;;;;;19.11;68.78;98865.77;1758086;81;20977;-43
2021/06/10 04:57:42;;;;;;;8.93;7.08;;;;;;;19.18;68.28;98864.22;1758277;81;20991;-43
2021/06/10 05:00:11;;;;;;;7.83;7.08;;;;;;;19.22;68.24;98871.77;1758380;81;21089;-42
2021/06/10 05:02:38;;;;;;;7.78;6.87;;;;;;;19.22;67.89;98870.40;1758379;81;21108;-43
2021/06/10 05:05:07;;;;;;;7.90;7.05;;;;;;;19.21;68.16;98873.00;1758461;81;21126;-42
2021/06/10 05:07:34;;;;;;;9.98;7.75;;;;;;;19.24;68.03;98874.88;1758442;81;21088;-42
2021/06/10 05:10:01;;;;;;;8.35;7.20;;;;;;;19.25;68.09;98870.93;1758092;81;20931;-42
2021/06/10 05:12:28;;;;;;;7.90;7.20;;;;;;;19.28;68.08;98872.03;1758236;81;21041;-42
2021/06/10 05:14:55;;;;;;;8.80;7.37;;;;;;;19.32;67.72;98872.12;1758332;81;21140;-42
2021/06/10 05:17:21;;;;;;;11.15;7.08;;;;;;;19.30;67.36;98870.42;1758233;81;21154;-42
2021/06/10 05:19:48;;;;;;;8.55;7.35;;;;;;;19.24;67.47;98874.88;1758284;81;20922;-42
2021/06/10 05:22:14;;;;;;;8.30;7.50;;;;;;;19.17;67.67;98871.53;1758504;81;21053;-42
2021/06/10 05:24:41;;;;;;;8.90;8.00;;;;;;;19.09;68.14;98866.19;1758348;81;20973;-43
2021/06/10 05:27:09;;;;;;;9.80;7.97;;;;;;;19.08;68.31;98873.48;1758303;81;21025;-42
2021/06/10 05:29:37;;;;;;;9.83;7.87;;;;;;;19.08;68.45;98872.11;1758483;81;21165;-42
2021/06/10 05:32:06;;;;;;;7.53;6.60;;;;;;;19.13;68.73;98866.10;1758259;81;21583;-42
2021/06/10 05:34:33;;;;;;;11.73;7.85;;;;;;;19.17;68.70;98866.04;1758342;81;20943;-42
2021/06/10 05:37:00;;;;;;;7.67;6.92;;;;;;;19.22;68.95;98866.27;1758350;81;21021;-43
2021/06/10 05:39:26;;;;;;;8.13;7.33;;;;;;;19.35;68.67;98866.37;1758378;81;21041;-43
2021/06/10 05:41:55;;;;;;;10.00;7.17;;;;;;;19.47;68.40;98864.33;1758155;81;21140;-43
2021/06/10 05:44:22;;;;;;;8.70;7.80;;;;;;;19.60;68.27;98863.05;1763051;81;21535;-43
2021/06/10 05:46:49;;;;;;;9.88;7.15;;;;;;;19.63;67.88;98864.92;1763406;81;21024;-42
2021/06/10 05:49:17;;;;;;;10.82;6.83;;;;;;;19.69;67.96;98865.95;1765655;80;21003;-43
2021/06/10 05:51:44;;;;;;;9.38;7.45;;;;;;;19.76;67.35;98866.52;1773639;80;21037;-42
2021/06/10 05:54:11;;;;;;;10.05;6.95;;;;;;;19.80;67.41;98870.58;1768553;80;21171;-43
2021/06/10 05:56:37;;;;;;;7.58;6.85;;;;;;;19.84;67.30;98869.88;1773642;80;21060;-43
2021/06/10 05:59:04;;;;;;;6.28;5.67;;;;;;;19.95;67.87;98868.97;1773645;80;21499;-43
2021/06/10 06:01:31;;;;;;;7.10;6.40;;;;;;;20.12;67.03;98870.48;1773581;80;21025;-43
2021/06/10 06:03:58;;;;;;;5.97;5.47;;;;;;;20.24;66.63;98873.86;1773687;80;21554;-43
2021/06/10 06:06:26;;;;;;;6.65;5.95;;;;;;;20.36;65.95;98871.80;1773539;80;21142;-43
2021/06/10 06:08:52;;;;;;;8.08;5.83;;;;;;;20.43;65.00;98873.55;1773531;80;20942;-44
2021/06/10 06:11:19;;;;;;;6.22;5.22;;;;;;;20.46;65.26;98876.05;1773755;80;21002;-43
2021/06/10 06:13:51;;;;;;;6.50;5.80;;;;;;;20.46;64.74;98876.05;1773575;80;21574;-43
2021/06/10 06:16:19;;;;;;;6.60;6.00;;;;;;;20.56;65.31;98877.73;1773257;80;21479;-43
2021/06/10 06:18:48;;;;;;;6.85;6.08;;;;;;;20.73;65.59;98875.81;1773686;80;21826;-43
2021/06/10 06:21:15;;;;;;;6.58;5.97;;;;;;;20.92;64.29;98878.20;1772419;80;20986;-43
2021/06/10 06:23:42;;;;;;;6.92;6.08;;;;;;;21.06;64.21;98875.60;1773811;80;21530;-43
2021/06/10 06:26:09;;;;;;;8.43;5.90;;;;;;;21.16;63.59;98874.53;1773583;80;20965;-43
2021/06/10 06:28:39;;;;;;;7.75;5.90;;;;;;;21.22;63.21;98876.90;1760905;80;21543;-43
2021/06/10 06:31:08;;;;;;;6.58;5.25;;;;;;;21.22;62.66;98874.92;1726700;83;21776;-42
2021/06/10 06:33:34;;;;;;;7.00;5.17;;;;;;;21.20;62.88;98878.71;1726463;83;21033;-43
2021/06/10 06:36:02;;;;;;;5.45;4.90;;;;;;;21.27;62.78;98872.21;1726616;83;21038;-42
2021/06/10 06:38:29;;;;;;;5.20;4.70;;;;;;;21.35;62.15;98876.27;1726830;83;21625;-44
2021/06/10 06:40:55;;;;;;;9.00;5.08;;;;;;;21.45;61.51;98870.24;1726587;83;21034;-43
2021/06/10 06:43:25;;;;;;;5.40;4.90;;;;;;;21.53;60.93;98864.67;1733373;82;21609;-43
2021/06/10 06:45:52;;;;;;;7.27;5.13;;;;;;;21.60;60.41;98865.19;1745302;82;21013;-43
2021/06/10 06:48:18;;;;;;;5.87;5.28;;;;;;;21.61;60.84;98866.74;1744906;82;20994;-43
2021/06/10 06:50:45;;;;;;;4.87;4.37;;;;;;;21.64;60.67;98867.22;1737762;82;21355;-42
2021/06/10 06:53:12;;;;;;;5.28;4.62;;;;;;;21.71;59.85;98870.96;1734735;82;21026;-43
2021/06/10 06:55:38;;;;;;;7.28;5.35;;;;;;;21.79;59.86;98870.27;1734700;82;21782;-43
2021/06/10 06:58:05;;;;;;;5.37;4.87;;;;;;;21.90;60.27;98872.06;1734576;82;20991;-43
2021/06/10 07:00:32;;;;;;;6.22;5.62;;;;;;;22.02;59.35;98869.91;1734848;82;21716;-43
2021/06/10 07:02:59;;;;;;;6.70;5.12;;;;;;;22.08;59.43;98874.22;1734731;82;20997;-43
2021/06/10 07:05:26;;;;;;;6.22;5.62;;;;;;;22.10;59.01;98880.84;1734715;82;21224;-43
2021/06/10 07:07:53;;;;;;;5.80;5.15;;;;;;;22.07;59.50;98877.58;1734812;82;21210;-43
2021/06/10 07:12:45;;;;;;;5.33;4.83;;;;;;;22.09;59.25;98879.30;1779191;79;22587;-44
2021/06/10 07:15:15;;;;;;;5.53;5.03;;;;;;;22.00;59.27;98890.88;1738847;82;21017;-43
2021/06/10 07:17:41;;;;;;;6.95;5.12;;;;;;;22.02;58.77;98883.70;1728400;81;21850;-43
2021/06/10 07:20:10;;;;;;;6.85;4.33;;;;;;;22.12;59.62;98887.91;1726866;83;21017;-43
2021/06/10 07:22:37;;;;;;;5.65;4.90;;;;;;;22.18;57.96;98889.63;1726798;82;20956;-43
2021/06/10 07:25:06;;;;;;;5.90;4.67;;;;;;;22.21;58.88;98892.12;1726690;83;21068;-43
2021/06/10 07:27:34;;;;;;;5.20;4.70;;;;;;;22.23;57.48;98890.44;1727156;83;21580;-43
2021/06/10 07:30:01;;;;;;;6.40;5.15;;;;;;;22.22;57.91;98886.77;1726888;83;21127;-43
2021/06/10 07:32:28;;;;;;;5.83;5.22;;;;;;;22.24;58.32;98892.59;1726691;83;20969;-43
2021/06/10 07:34:56;;;;;;;7.10;5.75;;;;;;;22.25;58.71;98892.77;1726651;83;20972;-44
2021/06/10 07:37:22;;;;;;;7.08;5.53;;;;;;;22.26;59.30;98888.78;1726629;83;21534;-43
2021/06/10 07:39:49;;;;;;;6.20;5.17;;;;;;;22.31;58.84;98890.97;1726844;83;21013;-43
2021/06/10 07:42:16;;;;;;;5.72;5.10;;;;;;;22.39;58.22;98893.63;1726787;82;21133;-43
2021/06/10 07:44:43;;;;;;;6.25;4.95;;;;;;;22.43;58.33;98892.88;1726971;83;21515;-43
2021/06/10 07:47:10;;;;;;;6.10;5.40;;;;;;;22.48;57.77;98896.45;1726911;83;20965;-43
2021/06/10 07:49:38;;;;;;;9.78;5.83;;;;;;;22.54;57.88;98891.89;1726849;83;21581;-43
2021/06/10 07:52:05;;;;;;;6.50;5.87;;;;;;;22.56;57.80;98899.73;1726748;83;21053;-43
2021/06/10 07:54:32;;;;;;;6.58;5.90;;;;;;;22.57;57.63;98895.11;1726782;83;21128;-43
2021/06/10 07:56:59;;;;;;;8.40;5.87;;;;;;;22.63;58.42;98904.37;1726813;83;21475;-43
2021/06/10 07:59:26;;;;;;;7.15;5.58;;;;;;;22.73;58.44;98896.33;1726624;83;21083;-43
2021/06/10 08:01:54;;;;;;;5.37;4.92;;;;;;;22.85;57.87;98894.06;1726711;83;21053;-43
2021/06/10 08:04:22;;;;;;;6.17;5.58;;;;;;;22.89;56.74;98896.11;1726835;83;21010;-43
2021/06/10 08:06:49;;;;;;;5.92;5.00;;;;;;;22.88;56.23;98891.80;1726717;83;21153;-43
2021/06/10 08:09:16;;;;;;;6.03;4.83;;;;;;;22.86;56.24;98890.70;1726370;83;21009;-43
2021/06/10 08:11:45;;;;;;;5.55;4.70;;;;;;;22.95;57.56;98887.36;1726823;82;21005;-43
2021/06/10 08:14:12;;;;;;;10.30;5.35;;;;;;;23.12;56.77;98876.07;1726980;83;20976;-43
2021/06/10 08:16:40;;;;;;;5.73;5.13;;;;;;;23.29;55.04;98882.88;1727414;81;21001;-43
2021/06/10 08:19:07;;;;;;;7.60;5.35;;;;;;;23.36;55.30;98870.16;1726967;82;21147;-43
2021/06/10 08:21:34;;;;;;;5.33;4.83;;;;;;;23.43;55.52;98876.02;1726854;83;21024;-43
2021/06/10 08:24:00;;;;;;;5.55;5.05;;;;;;;23.53;54.89;98870.69;1726552;83;21005;-43
2021/06/10 08:26:27;;;;;;;5.10;4.50;;;;;;;23.66;55.43;98871.31;1726295;82;21567;-43
2021/06/10 08:28:54;;;;;;;4.95;4.30;;;;;;;23.81;54.27;98869.48;1726507;83;21057;-43
2021/06/10 08:31:21;;;;;;;5.28;4.25;;;;;;;23.87;52.95;98871.03;1726167;83;21123;-43
2021/06/10 08:33:48;;;;;;;4.35;4.00;;;;;;;23.95;53.48;98864.73;1747822;81;21083;-43
2021/06/10 08:36:19;;;;;;;4.28;3.92;;;;;;;23.97;52.42;98860.09;1756634;81;21465;-43
2021/06/10 08:38:46;;;;;;;4.70;4.30;;;;;;;23.99;52.40;98862.56;1756854;81;21018;-43
2021/06/10 08:41:13;;;;;;;6.03;4.30;;;;;;;24.08;53.03;98861.78;1720636;83;21182;-43
2021/06/10 08:43:41;;;;;;;5.58;4.20;;;;;;;24.10;51.65;98862.11;1720377;83;21542;-43
2021/06/10 08:46:10;;;;;;;4.28;3.87;;;;;;;24.04;51.19;98859.80;1720427;83;20964;-44
2021/06/10 08:48:41;;;;;;;4.08;3.72;;;;;;;23.96;51.98;98857.19;1720567;83;20972;-43
2021/06/10 08:51:09;;;;;;;4.10;3.70;;;;;;;24.01;51.11;98856.58;1720303;83;21040;-43
2021/06/10 08:53:37;;;;;;;4.00;3.70;;;;;;;24.13;51.72;98854.24;1720384;83;21028;-43
2021/06/10 08:56:04;;;;;;;4.20;3.90;;;;;;;24.29;51.77;98855.34;1720893;83;21108;-43
2021/06/10 08:58:33;;;;;;;3.72;3.42;;;;;;;24.44;51.45;98860.40;1720507;83;21008;-43
2021/06/10 09:01:00;;;;;;;4.55;3.77;;;;;;;24.53;49.99;98858.98;1720832;83;20964;-43
2021/06/10 09:03:32;;;;;;;4.30;3.90;;;;;;;24.66;50.33;98858.78;1720429;83;21009;-43
2021/06/10 09:06:10;;;;;;;4.85;4.00;;;;;;;24.79;50.25;98850.27;1720873;83;21292;-43
2021/06/10 09:08:41;;;;;;;4.40;3.95;;;;;;;24.91;48.74;98854.88;1720619;83;21133;-43
2021/06/10 09:11:15;;;;;;;5.28;3.52;;;;;;;24.95;48.23;98863.80;1719901;83;20937;-43
2021/06/10 09:13:56;;;;;;;5.22;3.47;;;;;;;24.86;48.52;98862.42;1707319;84;21025;-43
2021/06/10 09:16:32;;;;;;;4.47;3.00;;;;;;;24.74;47.96;98848.16;1707636;84;21006;-43
2021/06/10 09:19:20;;;;;;;3.77;3.47;;;;;;;24.71;49.09;98849.07;1707554;84;21068;-43
2021/06/10 09:21:49;;;;;;;4.62;3.67;;;;;;;24.82;49.96;98850.73;1742715;81;21284;-43
2021/06/10 09:24:29;;;;;;;3.90;3.50;;;;;;;24.94;49.40;98844.23;1707437;84;20976;-43
2021/06/10 09:27:11;;;;;;;4.22;3.80;;;;;;;24.92;48.52;98842.56;1743462;82;21516;-42
2021/06/10 09:29:52;;;;;;;4.03;3.70;;;;;;;24.77;49.45;98847.20;1707434;83;20929;-43
2021/06/10 09:32:26;;;;;;;4.37;3.42;;;;;;;24.58;50.16;98838.19;1743424;81;21507;-43
2021/06/10 09:34:57;;;;;;;5.50;3.40;;;;;;;24.27;49.69;98845.33;1707396;83;21118;-43
2021/06/10 09:37:33;;;;;;;4.65;3.50;;;;;;;23.80;49.75;98841.03;1707649;83;21590;-43
2021/06/10 09:40:10;;;;;;;4.42;3.62;;;;;;;23.45;50.73;98843.91;1743134;82;20961;-43
2021/06/10 09:42:38;;;;;;;4.03;3.50;;;;;;;23.08;51.65;98846.41;1707615;83;20957;-43
2021/06/10 09:45:09;;;;;;;5.87;3.87;;;;;;;22.83;53.86;98839.88;1743195;81;21017;-43
2021/06/10 09:47:41;;;;;;;4.25;3.62;;;;;;;22.77;56.12;98840.30;1707475;83;23007;-42
2021/06/10 09:50:31;;;;;;;3.98;3.58;;;;;;;22.84;56.53;98839.27;1707369;84;21565;-43
2021/06/10 09:53:08;;;;;;;3.90;3.30;;;;;;;22.97;55.29;98834.39;1743264;81;20997;-43
2021/06/10 09:55:43;;;;;;;3.92;3.50;;;;;;;23.18;54.31;98837.69;1707295;83;21072;-43
2021/06/10 09:58:18;;;;;;;5.10;3.47;;;;;;;23.49;54.02;98841.77;1743523;81;21077;-43
2021/06/10 10:00:54;;;;;;;5.25;3.90;;;;;;;23.70;54.22;98847.80;1743250;81;22346;-42
2021/06/10 10:03:29;;;;;;;4.55;3.80;;;;;;;23.79;54.62;98854.72;1743171;81;21535;-43
2021/06/10 10:06:06;;;;;;;3.72;3.20;;;;;;;23.77;54.12;98850.86;1707539;84;21004;-43
2021/06/10 10:08:34;;;;;;;3.65;3.35;;;;;;;23.72;54.94;98846.70;1743367;81;21601;-43
2021/06/10 10:11:03;;;;;;;4.65;3.42;;;;;;;23.70;54.75;98842.87;1743193;81;20995;-43
2021/06/10 10:13:31;;;;;;;3.98;3.52;;;;;;;23.60;54.51;98846.24;1714266;83;21101;-43
2021/06/10 10:16:01;;;;;;;4.15;3.62;;;;;;;23.43;53.40;98848.35;1751114;82;20960;-43
2021/06/10 10:18:28;;;;;;;;;;;;;;;23.20;54.25;98844.13;1753188;80;21475;-43
2021/06/10 10:21:01;;;;;;;5.47;3.40;;;;;;;22.96;54.84;98846.67;1751153;82;20133;-43
2021/06/10 10:23:28;;;;;;;4.62;3.80;;;;;;;22.71;55.94;98849.02;1750688;81;21582;-43
2021/06/10 10:26:00;;;;;;;5.33;3.85;;;;;;;22.59;55.91;98841.57;1751259;82;21123;-43
2021/06/10 10:28:29;;;;;;;4.33;3.60;;;;;;;22.52;55.40;98832.16;1751281;82;20989;-43
2021/06/10 10:30:56;;;;;;;5.47;3.83;;;;;;;22.46;55.54;98828.47;1750946;81;21029;-43
2021/06/10 10:33:26;;;;;;;4.45;4.05;;;;;;;22.44;55.98;98832.28;1715222;83;21009;-43
2021/06/10 10:36:02;;;;;;;4.12;3.72;;;;;;;22.46;56.24;98824.32;1715165;83;21523;-42
2021/06/10 10:38:39;;;;;;;4.15;3.75;;;;;;;22.48;56.30;98824.63;1751247;82;21046;-43
2021/06/10 10:41:15;;;;;;;5.08;4.20;;;;;;;22.47;57.92;98820.31;1714925;83;21008;-43
2021/06/10 10:43:42;;;;;;;4.37;3.98;;;;;;;22.46;57.61;98809.12;1751161;82;21025;-43
2021/06/10 10:46:18;;;;;;;4.22;3.80;;;;;;;22.41;57.54;98804.94;1715045;83;21534;-43
2021/06/10 10:48:48;;;;;;;5.85;4.28;;;;;;;22.36;57.21;98798.64;1715103;83;21068;-43
2021/06/10 10:51:36;;;;;;;4.60;3.83;;;;;;;22.27;57.05;98800.59;1750987;82;21144;-43
2021/06/10 10:54:11;;;;;;;6.15;4.15;;;;;;;22.22;57.39;98810.83;1715026;83;20921;-42
2021/06/10 10:56:40;;;;;;;5.08;4.58;;;;;;;22.20;57.54;98808.52;1750583;81;21013;-43
2021/06/10 10:59:17;;;;;;;6.25;4.10;;;;;;;22.17;58.24;98806.66;1715280;83;21041;-42
2021/06/10 11:02:10;;;;;;;5.45;4.20;;;;;;;22.15;58.80;98810.47;1715160;83;21079;-42
2021/06/10 11:05:00;;;;;;;5.08;4.58;;;;;;;22.17;59.41;98809.42;1751290;82;20997;-43
2021/06/10 11:07:39;;;;;;;5.90;4.50;;;;;;;22.16;59.80;98801.58;1750365;81;20981;-43
2021/06/10 11:10:18;;;;;;;5.47;4.40;;;;;;;22.08;60.34;98803.21;1751102;82;20981;-43
2021/06/10 11:12:50;;;;;;;4.95;4.35;;;;;;;22.03;59.75;98810.69;1715096;83;21064;-43
2021/06/10 11:15:26;;;;;;;4.37;3.98;;;;;;;21.98;57.82;98829.20;1751102;82;21553;-43
2021/06/10 11:18:07;;;;;;;5.75;4.20;;;;;;;21.90;56.96;98840.32;1751244;82;21555;-43
2021/06/10 11:20:43;;;;;;;4.90;4.25;;;;;;;21.82;56.93;98845.94;1748910;81;21500;-43
2021/06/10 11:23:25;;;;;;;5.72;4.40;;;;;;;21.75;57.59;98843.41;1714988;83;21001;-42
2021/06/10 11:25:52;;;;;;;6.00;4.28;;;;;;;21.73;58.20;98834.83;1750747;81;21065;-43
2021/06/10 11:28:25;;;;;;;5.85;4.58;;;;;;;21.72;58.66;98836.03;1750826;82;21085;-43
2021/06/10 11:30:56;;;;;;;5.80;4.20;;;;;;;21.69;58.84;98834.16;1750685;81;21146;-43
2021/06/10 11:33:24;;;;;;;6.17;4.47;;;;;;;21.68;59.09;98825.73;1741580;82;20937;-42
2021/06/10 11:35:59;;;;;;;6.87;5.42;;;;;;;21.72;59.11;98817.33;1751135;82;21475;-43
2021/06/10 11:38:31;;;;;;;8.48;4.90;;;;;;;21.74;59.04;98818.41;1749897;81;21009;-43
2021/06/10 11:41:16;;;;;;;4.72;4.30;;;;;;;21.76;59.30;98818.75;1750955;82;20954;-42
2021/06/10 11:43:55;;;;;;;4.42;4.03;;;;;;;21.75;58.87;98821.34;1751038;82;21065;-43
2021/06/10 11:46:34;;;;;;;5.05;4.55;;;;;;;21.72;57.82;98825.00;1715082;83;20990;-43
2021/06/10 11:49:01;;;;;;;6.85;4.62;;;;;;;21.68;58.21;98831.25;1751056;82;20902;-43
2021/06/10 11:51:30;;;;;;;5.30;4.30;;;;;;;21.66;58.22;98832.30;1714867;83;21136;-43
2021/06/10 11:54:12;;;;;;;4.75;4.35;;;;;;;21.67;58.07;98838.76;1745338;81;21025;-43
2021/06/10 11:56:42;;;;;;;7.12;4.28;;;;;;;21.65;59.26;98840.41;1714917;83;21134;-43
2021/06/10 11:59:24;;;;;;;8.65;4.70;;;;;;;21.63;60.63;98837.34;1751263;81;20994;-43
2021/06/10 12:02:01;;;;;;;4.72;4.20;;;;;;;21.55;61.18;98837.40;1751617;82;20977;-43
2021/06/10 12:04:30;;;;;;;5.47;4.22;;;;;;;21.44;61.82;98839.77;1751103;82;20993;-43
2021/06/10 12:07:14;;;;;;;6.37;4.53;;;;;;;21.28;62.24;98828.88;1751561;82;21089;-43
2021/06/10 12:09:55;;;;;;;4.85;4.20;;;;;;;21.16;63.28;98824.30;1751159;82;21849;-43
2021/06/10 12:12:41;;;;;;;6.03;4.50;;;;;;;21.06;63.24;98829.52;1750040;82;21080;-42
2021/06/10 12:15:19;;;;;;;6.10;4.42;;;;;;;20.99;63.88;98840.02;1707429;84;20973;-43
2021/06/10 12:18:09;;;;;;;5.15;4.53;;;;;;;20.93;63.60;98839.79;1742824;81;20950;-43
2021/06/10 12:20:39;;;;;;;6.30;4.60;;;;;;;20.84;63.71;98831.42;1707762;84;21529;-43
2021/06/10 12:23:16;;;;;;;6.58;4.60;;;;;;;20.78;63.96;98831.80;1706784;84;21837;-43
2021/06/10 12:25:59;;;;;;;6.47;4.60;;;;;;;20.78;64.20;98837.30;1743116;82;20970;-43
2021/06/10 12:28:37;;;;;;;6.33;4.03;;;;;;;20.78;63.46;98832.57;1731197;81;21016;-43
2021/06/10 12:31:16;;;;;;;5.85;4.40;;;;;;;20.84;64.04;98836.92;1707526;83;21024;-43
2021/06/10 12:33:52;;;;;;;6.35;4.62;;;;;;;20.90;63.63;98823.38;1743758;82;20994;-43
2021/06/10 12:36:36;;;;;;;9.15;4.67;;;;;;;20.94;63.71;98822.66;1743184;81;21136;-43
2021/06/10 12:39:14;;;;;;;6.85;5.12;;;;;;;21.02;63.62;98815.69;1707617;83;21566;-43
2021/06/10 12:41:47;;;;;;;5.08;4.58;;;;;;;21.10;63.10;98810.13;1737487;82;21515;-43
2021/06/10 12:44:31;;;;;;;6.58;5.40;;;;;;;21.21;62.97;98807.20;1735001;82;20962;-42
2021/06/10 12:47:00;;;;;;;12.07;4.90;;;;;;;21.55;61.63;98804.30;1734858;82;22034;-43
2021/06/10 12:49:42;;;;;;;8.05;5.05;;;;;;;22.06;61.27;98800.15;1735279;82;21130;-43
2021/06/10 12:52:18;;;;;;;6.95;5.45;;;;;;;22.73;60.03;98794.69;1734689;82;20974;-43
2021/06/10 12:54:46;;;;;;;6.00;5.28;;;;;;;23.49;56.99;98793.34;1735017;82;21017;-43
2021/06/10 12:57:24;;;;;;;6.17;5.58;;;;;;;24.18;54.47;98794.10;1734849;82;20986;-43
2021/06/10 12:59:56;;;;;;;6.05;5.55;;;;;;;24.58;53.15;98791.07;1735112;82;21089;-43
2021/06/10 13:02:24;;;;;;;5.58;4.92;;;;;;;24.84;52.83;98776.16;1734806;82;21111;-44
2021/06/10 13:05:12;;;;;;;5.40;4.90;;;;;;;25.15;52.26;98776.63;1735057;82;21042;-43
2021/06/10 13:07:41;;;;;;;5.55;5.03;;;;;;;25.46;50.73;98770.08;1734734;82;20942;-43
2021/06/10 13:10:32;;;;;;;6.17;4.75;;;;;;;25.78;49.50;98760.77;1735273;82;21069;-42
2021/06/10 13:12:58;;;;;;;6.22;5.45;;;;;;;26.16;48.73;98766.25;1738700;81;21029;-43
2021/06/10 13:15:35;;;;;;;8.25;5.05;;;;;;;26.60;48.20;98769.02;1738746;82;21099;-43
2021/06/10 13:18:11;;;;;;;5.17;4.72;;;;;;;26.93;48.14;98769.38;1689962;84;21071;-43
2021/06/10 13:20:58;;;;;;;5.62;5.00;;;;;;;27.28;48.08;98767.34;1690181;84;21090;-43
2021/06/10 13:23:33;;;;;;;9.58;5.72;;;;;;;27.43;48.15;98771.44;1654182;86;21024;-42
2021/06/10 13:26:29;;;;;;;11.25;6.47;;;;;;;27.41;50.06;98796.20;1690274;83;21092;-43
2021/06/10 13:29:00;;;;;;;10.58;5.40;;;;;;;26.89;51.80;98801.58;1654483;86;21621;-42
2021/06/10 13:31:40;;;;;;;11.75;5.60;;;;;;;26.08;52.43;98785.94;1690170;83;22035;-42
2021/06/10 13:34:12;;;;;;;5.65;5.10;;;;;;;25.46;53.90;98788.13;1690333;84;21045;-43
2021/06/10 13:37:13;;;;;;;4.67;4.00;;;;;;;24.94;55.06;98796.47;1654487;86;21506;-43
2021/06/10 13:39:14;;;;;;;4.50;3.60;;;;;;;24.44;54.30;98795.28;1653005;86;21112;-43
2021/06/10 13:41:40;;;;;;;6.83;3.87;;;;;;;23.88;54.96;98804.11;1690315;83;21157;-43
2021/06/10 13:44:08;;;;;;;9.55;4.33;;;;;;;23.46;56.96;98805.95;1690220;84;21051;-43
2021/06/10 13:46:36;;;;;;;5.58;3.77;;;;;;;23.21;58.04;98803.58;1690065;84;21081;-42
2021/06/10 13:49:03;;;;;;;12.07;3.77;;;;;;;23.04;58.94;98808.47;1690287;84;21001;-43
2021/06/10 13:51:30;;;;;;;5.72;3.62;;;;;;;22.90;60.25;98815.31;1654364;86;21096;-43
2021/06/10 13:53:56;;;;;;;7.05;4.10;;;;;;;22.80;60.27;98809.62;1690006;83;21570;-42
2021/06/10 13:56:26;;;;;;;7.67;4.22;;;;;;;22.72;60.36;98803.58;1689953;84;21028;-42
2021/06/10 13:58:53;;;;;;;9.93;5.10;;;;;;;22.60;60.51;98794.77;1690193;84;21080;-43
2021/06/10 14:01:20;;;;;;;6.92;4.80;;;;;;;22.44;62.13;98803.27;1690061;84;20985;-42
2021/06/10 14:03:47;;;;;;;8.88;4.90;;;;;;;22.28;62.87;98805.64;1649055;86;21051;-43
2021/06/10 14:06:13;;;;;;;4.78;4.08;;;;;;;22.18;62.78;98805.42;1689998;84;21818;-42
2021/06/10 14:08:41;;;;;;;8.20;4.10;;;;;;;22.13;62.58;98813.51;1654255;86;21049;-43
2021/06/10 14:11:12;;;;;;;5.95;4.12;;;;;;;21.93;62.60;98805.55;1690075;83;21519;-43
2021/06/10 14:13:39;;;;;;;5.05;4.55;;;;;;;21.67;62.37;98800.73;1653080;86;21029;-43
2021/06/10 14:16:07;;;;;;;8.60;4.50;;;;;;;21.38;62.94;98799.57;1690352;84;21108;-42
2021/06/10 14:18:33;;;;;;;5.40;4.35;;;;;;;21.13;64.10;98799.59;1707637;84;21874;-42
2021/06/10 14:21:00;;;;;;;4.50;3.85;;;;;;;20.95;64.59;98801.55;1707563;84;21032;-43
2021/06/10 14:23:26;;;;;;;5.30;4.20;;;;;;;20.83;65.34;98803.70;1707673;84;21080;-43
2021/06/10 14:25:53;;;;;;;4.95;4.30;;;;;;;20.75;66.42;98812.03;1707494;84;21025;-42
2021/06/10 14:28:20;;;;;;;4.60;3.90;;;;;;;20.70;66.94;98816.70;1707866;84;21053;-42
2021/06/10 14:30:53;;;;;;;6.30;4.30;;;;;;;20.69;67.09;98816.53;1707589;83;21205;-42
2021/06/10 14:33:15;;;;;;;5.35;4.30;;;;;;;20.74;67.22;98817.36;1706011;83;21021;-43
2021/06/10 14:35:41;;;;;;;5.50;4.17;;;;;;;20.82;67.36;98822.20;1707588;84;21044;-42
2021/06/10 14:38:09;;;;;;;5.30;4.25;;;;;;;20.90;67.74;98824.16;1707486;83;20993;-42
2021/06/10 14:40:37;;;;;;;5.83;4.35;;;;;;;20.94;67.97;98820.67;1707495;84;21550;-43
2021/06/10 14:43:04;;;;;;;4.85;4.42;;;;;;;21.00;67.81;98821.67;1707910;83;21177;-42
2021/06/10 14:45:32;;;;;;;4.97;4.47;;;;;;;21.08;67.25;98816.08;1721899;82;21602;-43
2021/06/10 14:47:59;;;;;;;6.28;4.90;;;;;;;21.07;67.04;98818.67;1733448;82;20934;-43
2021/06/10 14:50:26;;;;;;;5.28;4.70;;;;;;;21.07;67.53;98820.65;1733209;82;21014;-42
2021/06/10 14:52:52;;;;;;;7.58;5.00;;;;;;;21.06;66.96;98818.50;1733649;82;21507;-43
2021/06/10 14:55:19;;;;;;;7.17;4.65;;;;;;;21.08;67.13;98818.84;1733021;82;21114;-42
2021/06/10 14:57:45;;;;;;;6.53;5.10;;;;;;;21.10;67.26;98821.94;1714639;82;21016;-43
2021/06/10 15:00:14;;;;;;;5.92;5.35;;;;;;;21.14;67.15;98825.97;1733362;82;21606;-43
2021/06/10 15:02:43;;;;;;;5.58;5.03;;;;;;;21.13;66.67;98830.72;1733514;82;20930;-43
2021/06/10 15:05:11;;;;;;;5.80;5.15;;;;;;;21.12;66.98;98825.00;1733600;82;21029;-43
2021/06/10 15:07:38;;;;;;;6.10;5.47;;;;;;;21.14;67.35;98828.13;1733630;82;21146;-42
2021/06/10 15:10:06;;;;;;;7.22;6.53;;;;;;;21.19;67.36;98822.06;1733229;82;21499;-43